Terminal Aerodrome Forecast
Issued by NWS Tampa Bay Area, FL

Current Version | Previous Version | Text Only | Print | Product List | Glossary On
Versions: 1 2 3 4 5 6 7 8 9 10 11 12 13 14
000
FTUS42 KTBW 210500
TAFSRQ
TAF
KSRQ 210531Z 2106/2206 00000KT P6SM FEW020 SCT250
     FM211200 10004KT P6SM VCSH SCT030 BKN250
     FM211500 VRB06KT P6SM VCTS SCT030CB BKN070
     FM211800 23008KT P6SM VCTS SCT035CB BKN070
     FM220300 VRB05KT P6SM SCT040 BKN060=

USA.gov is the U.S. government's official web portal to all federal, state and local government web resources and services.